sensor_id;sensor_type;location;lat;lon;timestamp;pressure;altitude;pressure_sealevel;temperature;humidity
65359;BME280;52491;45.900;6.346;2023-01-31T00:00:46;94516.47;;;22.33;21.60
65359;BME280;52491;45.900;6.346;2023-01-31T00:03:12;94514.00;;;22.31;21.57
65359;BME280;52491;45.900;6.346;2023-01-31T00:05:37;94514.81;;;22.32;21.68
65359;BME280;52491;45.900;6.346;2023-01-31T00:08:03;94510.56;;;22.31;21.33
65359;BME280;52491;45.900;6.346;2023-01-31T00:10:29;94510.56;;;22.31;21.47
65359;BME280;52491;45.900;6.346;2023-01-31T00:12:56;94508.97;;;22.30;21.34
65359;BME280;52491;45.900;6.346;2023-01-31T00:15:22;94507.56;;;22.27;21.70
65359;BME280;52491;45.900;6.346;2023-01-31T00:17:47;94507.56;;;22.27;21.57
65359;BME280;52491;45.900;6.346;2023-01-31T00:20:13;94501.47;;;22.27;21.28
65359;BME280;52491;45.900;6.346;2023-01-31T00:22:38;94505.13;;;22.26;21.47
65359;BME280;52491;45.900;6.346;2023-01-31T00:25:05;94510.44;;;22.26;21.43
65359;BME280;52491;45.900;6.346;2023-01-31T00:27:31;94501.34;;;22.22;21.49
65359;BME280;52491;45.900;6.346;2023-01-31T00:29:56;94507.69;;;22.21;21.48
65359;BME280;52491;45.900;6.346;2023-01-31T00:32:22;94503.41;;;22.20;21.44
65359;BME280;52491;45.900;6.346;2023-01-31T00:34:50;94500.75;;;22.20;21.44
65359;BME280;52491;45.900;6.346;2023-01-31T00:37:15;94492.22;;;22.18;21.27
65359;BME280;52491;45.900;6.346;2023-01-31T00:39:41;94492.44;;;22.16;21.26
65359;BME280;52491;45.900;6.346;2023-01-31T00:42:06;94488.13;;;22.15;21.25
65359;BME280;52491;45.900;6.346;2023-01-31T00:44:32;94491.03;;;22.13;21.43
65359;BME280;52491;45.900;6.346;2023-01-31T00:46:57;94491.84;;;22.14;21.34
65359;BME280;52491;45.900;6.346;2023-01-31T00:49:23;94494.75;;;22.12;21.38
65359;BME280;52491;45.900;6.346;2023-01-31T00:51:49;94497.63;;;22.11;21.34
65359;BME280;52491;45.900;6.346;2023-01-31T00:54:14;94505.59;;;22.11;21.18
65359;BME280;52491;45.900;6.346;2023-01-31T00:56:40;94496.81;;;22.10;21.18
65359;BME280;52491;45.900;6.346;2023-01-31T00:59:05;94507.44;;;22.10;21.29
65359;BME280;52491;45.900;6.346;2023-01-31T01:01:33;94502.13;;;22.10;21.22
65359;BME280;52491;45.900;6.346;2023-01-31T01:04:00;94496.81;;;22.10;21.28
65359;BME280;52491;45.900;6.346;2023-01-31T01:06:26;94510.09;;;22.10;21.29
65359;BME280;52491;45.900;6.346;2023-01-31T01:08:53;94498.69;;;22.10;21.10
65359;BME280;52491;45.900;6.346;2023-01-31T01:11:24;94497.63;;;22.11;21.25
65359;BME280;52491;45.900;6.346;2023-01-31T01:13:51;94498.69;;;22.10;21.32
65359;BME280;52491;45.900;6.346;2023-01-31T01:16:21;94501.88;;;22.12;21.10
65359;BME280;52491;45.900;6.346;2023-01-31T01:18:47;94498.91;;;22.08;21.23
65359;BME280;52491;45.900;6.346;2023-01-31T01:21:17;94494.63;;;22.07;21.10
65359;BME280;52491;45.900;6.346;2023-01-31T01:23:43;94498.09;;;22.08;21.18
65359;BME280;52491;45.900;6.346;2023-01-31T01:26:16;94498.91;;;22.08;21.01
65359;BME280;52491;45.900;6.346;2023-01-31T01:28:42;94507.09;;;22.07;21.04
65359;BME280;52491;45.900;6.346;2023-01-31T01:31:09;94508.72;;;22.08;21.00
65359;BME280;52491;45.900;6.346;2023-01-31T01:33:36;94517.72;;;22.07;21.12
65359;BME280;52491;45.900;6.346;2023-01-31T01:36:06;94511.59;;;22.06;21.08
65359;BME280;52491;45.900;6.346;2023-01-31T01:38:34;94517.94;;;22.05;20.95
65359;BME280;52491;45.900;6.346;2023-01-31T01:41:00;94515.06;;;22.07;20.96
65359;BME280;52491;45.900;6.346;2023-01-31T01:46:10;94507.09;;;22.07;20.96
65359;BME280;52491;45.900;6.346;2023-01-31T01:48:36;94511.59;;;22.06;20.96
65359;BME280;52491;45.900;6.346;2023-01-31T01:51:04;94512.19;;;22.08;20.82
65359;BME280;52491;45.900;6.346;2023-01-31T01:53:34;94514.03;;;22.08;20.85
65359;BME280;52491;45.900;6.346;2023-01-31T01:56:08;94507.91;;;22.07;20.98
65359;BME280;52491;45.900;6.346;2023-01-31T02:01:09;94512.63;;;22.05;20.87
65359;BME280;52491;45.900;6.346;2023-01-31T02:03:38;94524.88;;;22.06;20.82
65359;BME280;52491;45.900;6.346;2023-01-31T02:06:05;94522.47;;;22.05;20.91
65359;BME280;52491;45.900;6.346;2023-01-31T02:08:33;94527.53;;;22.06;20.83
65359;BME280;52491;45.900;6.346;2023-01-31T02:11:22;94530.19;;;22.06;20.76
65359;BME280;52491;45.900;6.346;2023-01-31T02:13:51;94522.47;;;22.05;20.85
65359;BME280;52491;45.900;6.346;2023-01-31T02:16:18;94525.13;;;22.05;20.84
65359;BME280;52491;45.900;6.346;2023-01-31T02:18:44;94522.69;;;22.03;20.87
65359;BME280;52491;45.900;6.346;2023-01-31T02:24:47;94539.41;;;22.04;20.84
65359;BME280;52491;45.900;6.346;2023-01-31T02:26:55;94543.13;;;22.03;20.76
65359;BME280;52491;45.900;6.346;2023-01-31T02:35:16;94558.84;;;22.04;20.50
65359;BME280;52491;45.900;6.346;2023-01-31T02:38:10;94557.78;;;22.05;20.76
65359;BME280;52491;45.900;6.346;2023-01-31T02:49:42;94560.66;;;22.04;20.62
65359;BME280;52491;45.900;6.346;2023-01-31T02:52:34;94561.69;;;22.03;20.55
65359;BME280;52491;45.900;6.346;2023-01-31T02:55:15;94568.06;;;22.02;20.67
65359;BME280;52491;45.900;6.346;2023-01-31T02:58:05;94569.88;;;22.01;20.68
65359;BME280;52491;45.900;6.346;2023-01-31T03:00:33;94574.19;;;22.02;20.58
65359;BME280;52491;45.900;6.346;2023-01-31T03:03:04;94572.91;;;22.05;20.45
65359;BME280;52491;45.900;6.346;2023-01-31T03:05:30;94576.38;;;22.05;20.61
65359;BME280;52491;45.900;6.346;2023-01-31T03:07:59;94577.97;;;22.06;20.41
65359;BME280;52491;45.900;6.346;2023-01-31T03:10:45;94582.47;;;22.06;20.55
65359;BME280;52491;45.900;6.346;2023-01-31T03:16:34;94573.72;;;22.05;20.53
65359;BME280;52491;45.900;6.346;2023-01-31T03:19:43;94572.31;;;22.03;20.43
65359;BME280;52491;45.900;6.346;2023-01-31T03:22:14;94575.78;;;22.03;20.57
65359;BME280;52491;45.900;6.346;2023-01-31T03:24:43;94578.22;;;22.05;20.43
65359;BME280;52491;45.900;6.346;2023-01-31T03:27:09;94587.19;;;22.04;20.57
65359;BME280;52491;45.900;6.346;2023-01-31T03:29:36;94584.34;;;22.05;20.43
65359;BME280;52491;45.900;6.346;2023-01-31T03:32:25;94584.34;;;22.05;20.53
65359;BME280;52491;45.900;6.346;2023-01-31T03:34:53;94589.66;;;22.05;20.51
65359;BME280;52491;45.900;6.346;2023-01-31T03:37:43;94597.72;;;22.10;20.47
65359;BME280;52491;45.900;6.346;2023-01-31T03:40:23;94602.47;;;22.08;20.26
65359;BME280;52491;45.900;6.346;2023-01-31T03:43:01;94602.69;;;22.07;20.44
65359;BME280;52491;45.900;6.346;2023-01-31T03:45:39;94605.31;;;22.07;20.45
65359;BME280;52491;45.900;6.346;2023-01-31T03:48:07;94611.69;;;22.06;20.23
65359;BME280;52491;45.900;6.346;2023-01-31T03:50:41;94609.50;;;22.03;20.38
65359;BME280;52491;45.900;6.346;2023-01-31T03:54:20;94611.69;;;22.06;20.34
65359;BME280;52491;45.900;6.346;2023-01-31T03:59:08;94621.25;;;22.07;20.43
65359;BME280;52491;45.900;6.346;2023-01-31T04:01:41;94623.34;;;22.05;20.27
65359;BME280;52491;45.900;6.346;2023-01-31T04:04:10;94633.72;;;22.06;20.22
65359;BME280;52491;45.900;6.346;2023-01-31T04:06:39;94626.81;;;22.05;20.33
65359;BME280;52491;45.900;6.346;2023-01-31T04:09:05;94631.31;;;22.05;20.22
65359;BME280;52491;45.900;6.346;2023-01-31T04:11:38;94651.06;;;22.09;20.43
65359;BME280;52491;45.900;6.346;2023-01-31T04:14:05;94646.00;;;22.07;20.36
65359;BME280;52491;45.900;6.346;2023-01-31T04:16:30;94647.38;;;22.10;20.27
65359;BME280;52491;45.900;6.346;2023-01-31T04:18:56;94637.56;;;22.10;20.03
65359;BME280;52491;45.900;6.346;2023-01-31T04:21:22;94636.97;;;22.08;20.19
65359;BME280;52491;45.900;6.346;2023-01-31T04:23:47;94643.09;;;22.09;20.31
65359;BME280;52491;45.900;6.346;2023-01-31T04:26:13;94647.13;;;22.11;20.21
65359;BME280;52491;45.900;6.346;2023-01-31T04:28:39;94644.47;;;22.11;20.12
65359;BME280;52491;45.900;6.346;2023-01-31T04:31:04;94643.47;;;22.12;20.26
65359;BME280;52491;45.900;6.346;2023-01-31T04:33:30;94657.75;;;22.11;19.98
65359;BME280;52491;45.900;6.346;2023-01-31T04:35:56;94654.09;;;22.12;20.18
65359;BME280;52491;45.900;6.346;2023-01-31T04:38:21;94650.38;;;22.13;19.91
65359;BME280;52491;45.900;6.346;2023-01-31T04:40:47;94646.91;;;22.13;20.21
65359;BME280;52491;45.900;6.346;2023-01-31T04:43:13;94659.94;;;22.15;20.17
65359;BME280;52491;45.900;6.346;2023-01-31T04:45:38;94658.94;;;22.16;20.14
65359;BME280;52491;45.900;6.346;2023-01-31T04:48:04;94657.09;;;22.16;19.95
65359;BME280;52491;45.900;6.346;2023-01-31T04:50:30;94651.56;;;22.18;20.02
65359;BME280;52491;45.900;6.346;2023-01-31T04:52:55;94653.19;;;22.19;19.95
65359;BME280;52491;45.900;6.346;2023-01-31T04:55:21;94658.50;;;22.19;20.18
65359;BME280;52491;45.900;6.346;2023-01-31T04:57:47;94658.50;;;22.19;20.25
65359;BME280;52491;45.900;6.346;2023-01-31T05:00:13;94659.31;;;22.19;20.08
65359;BME280;52491;45.900;6.346;2023-01-31T05:02:39;94660.13;;;22.20;19.92
65359;BME280;52491;45.900;6.346;2023-01-31T05:05:05;94661.72;;;22.21;20.08
65359;BME280;52491;45.900;6.346;2023-01-31T05:07:31;94664.97;;;22.23;20.05
65359;BME280;52491;45.900;6.346;2023-01-31T05:09:58;94665.31;;;22.26;20.05
65359;BME280;52491;45.900;6.346;2023-01-31T05:12:24;94672.25;;;22.27;20.13
65359;BME280;52491;45.900;6.346;2023-01-31T05:14:51;94674.09;;;22.27;20.05
65359;BME280;52491;45.900;6.346;2023-01-31T05:17:16;94675.72;;;22.28;20.05
65359;BME280;52491;45.900;6.346;2023-01-31T05:19:51;94673.28;;;22.26;19.98
65359;BME280;52491;45.900;6.346;2023-01-31T05:22:16;94674.09;;;22.27;20.21
65359;BME280;52491;45.900;6.346;2023-01-31T05:24:47;94670.41;;;22.28;20.31
65359;BME280;52491;45.900;6.346;2023-01-31T05:27:14;94679.97;;;22.29;20.04
65359;BME280;52491;45.900;6.346;2023-01-31T05:29:40;94675.25;;;22.31;20.05
65359;BME280;52491;45.900;6.346;2023-01-31T05:32:06;94683.81;;;22.33;20.05
65359;BME280;52491;45.900;6.346;2023-01-31T05:34:33;94689.94;;;22.33;19.99
65359;BME280;52491;45.900;6.346;2023-01-31T05:36:59;94681.75;;;22.35;20.16
65359;BME280;52491;45.900;6.346;2023-01-31T05:39:25;94683.56;;;22.34;20.00
65359;BME280;52491;45.900;6.346;2023-01-31T05:41:51;94684.41;;;22.35;20.07
65359;BME280;52491;45.900;6.346;2023-01-31T05:44:17;94687.06;;;22.35;20.05
65359;BME280;52491;45.900;6.346;2023-01-31T05:46:43;94698.22;;;22.37;20.20
65359;BME280;52491;45.900;6.346;2023-01-31T05:49:09;94686.59;;;22.38;20.15
65359;BME280;52491;45.900;6.346;2023-01-31T05:51:35;94680.81;;;22.41;20.31
65359;BME280;52491;45.900;6.346;2023-01-31T05:54:00;94684.28;;;22.42;20.28
65359;BME280;52491;45.900;6.346;2023-01-31T05:56:26;94682.19;;;22.44;20.41
65359;BME280;52491;45.900;6.346;2023-01-31T05:58:52;94695.69;;;22.42;20.52
65359;BME280;52491;45.900;6.346;2023-01-31T06:01:19;94690.63;;;22.41;20.59
65359;BME280;52491;45.900;6.346;2023-01-31T06:03:45;94687.97;;;22.41;20.79
65359;BME280;52491;45.900;6.346;2023-01-31T06:06:11;94702.06;;;22.41;20.71
65359;BME280;52491;45.900;6.346;2023-01-31T06:08:36;94694.09;;;22.41;20.87
65359;BME280;52491;45.900;6.346;2023-01-31T06:11:03;94691.78;;;22.45;20.85
65359;BME280;52491;45.900;6.346;2023-01-31T06:13:32;94690.50;;;22.47;20.93
65359;BME280;52491;45.900;6.346;2023-01-31T06:15:58;94687.84;;;22.47;20.81
65359;BME280;52491;45.900;6.346;2023-01-31T06:18:25;94688.66;;;22.48;20.93
65359;BME280;52491;45.900;6.346;2023-01-31T06:20:52;94687.41;;;22.50;21.00
65359;BME280;52491;45.900;6.346;2023-01-31T06:23:18;94690.84;;;22.51;21.08
65359;BME280;52491;45.900;6.346;2023-01-31T06:25:48;94694.09;;;22.53;21.02
65359;BME280;52491;45.900;6.346;2023-01-31T06:28:14;94705.53;;;22.53;20.93
65359;BME280;52491;45.900;6.346;2023-01-31T06:30:40;94689.59;;;22.53;20.97
65359;BME280;52491;45.900;6.346;2023-01-31T06:33:05;94689.38;;;22.55;21.06
65359;BME280;52491;45.900;6.346;2023-01-31T06:35:31;94693.84;;;22.54;21.17
65359;BME280;52491;45.900;6.346;2023-01-31T06:37:58;94698.94;;;22.56;21.15
65359;BME280;52491;45.900;6.346;2023-01-31T06:40:23;94700.00;;;22.55;21.44
65359;BME280;52491;45.900;6.346;2023-01-31T06:42:49;94707.50;;;22.58;20.83
65359;BME280;52491;45.900;6.346;2023-01-31T06:45:15;94708.53;;;22.57;21.06
65359;BME280;52491;45.900;6.346;2023-01-31T06:47:40;94707.72;;;22.56;21.08
65359;BME280;52491;45.900;6.346;2023-01-31T06:50:06;94713.84;;;22.57;21.22
65359;BME280;52491;45.900;6.346;2023-01-31T06:52:32;94720.78;;;22.58;21.05
65359;BME280;52491;45.900;6.346;2023-01-31T06:54:57;94731.19;;;22.60;21.05
65359;BME280;52491;45.900;6.346;2023-01-31T06:57:23;94735.69;;;22.59;21.01
65359;BME280;52491;45.900;6.346;2023-01-31T06:59:49;94746.09;;;22.61;21.28
65359;BME280;52491;45.900;6.346;2023-01-31T07:02:14;94742.41;;;22.62;21.14
65359;BME280;52491;45.900;6.346;2023-01-31T07:04:40;94747.13;;;22.60;21.23
65359;BME280;52491;45.900;6.346;2023-01-31T07:07:06;94742.84;;;22.59;21.17
65359;BME280;52491;45.900;6.346;2023-01-31T07:09:32;94734.09;;;22.58;21.21
65359;BME280;52491;45.900;6.346;2023-01-31T07:11:57;94747.94;;;22.60;21.27
65359;BME280;52491;45.900;6.346;2023-01-31T07:14:23;94754.88;;;22.61;21.46
65359;BME280;52491;45.900;6.346;2023-01-31T07:16:48;94747.13;;;22.60;21.73
65359;BME280;52491;45.900;6.346;2023-01-31T07:19:14;94748.63;;;22.55;21.32
65359;BME280;52491;45.900;6.346;2023-01-31T07:21:39;94754.41;;;22.52;21.41
65359;BME280;52491;45.900;6.346;2023-01-31T07:24:06;94756.47;;;22.50;21.46
65359;BME280;52491;45.900;6.346;2023-01-31T07:26:32;94761.44;;;22.47;21.48
65359;BME280;52491;45.900;6.346;2023-01-31T07:28:59;94773.09;;;22.46;21.58
65359;BME280;52491;45.900;6.346;2023-01-31T07:31:24;94779.47;;;22.45;21.44
65359;BME280;52491;45.900;6.346;2023-01-31T07:33:50;94782.34;;;22.43;21.90
65359;BME280;52491;45.900;6.346;2023-01-31T07:36:16;94794.00;;;22.42;21.58
65359;BME280;52491;45.900;6.346;2023-01-31T07:38:45;94787.09;;;22.41;21.68
65359;BME280;52491;45.900;6.346;2023-01-31T07:41:11;94789.16;;;22.39;21.64
65359;BME280;52491;45.900;6.346;2023-01-31T07:43:36;94786.50;;;22.39;21.84
65359;BME280;52491;45.900;6.346;2023-01-31T07:46:06;94785.44;;;22.40;21.76
65359;BME280;52491;45.900;6.346;2023-01-31T07:48:33;94784.06;;;22.38;21.63
65359;BME280;52491;45.900;6.346;2023-01-31T07:51:00;94794.25;;;22.41;21.62
65359;BME280;52491;45.900;6.346;2023-01-31T07:53:28;94787.31;;;22.40;21.60
65359;BME280;52491;45.900;6.346;2023-01-31T07:55:54;94788.56;;;22.37;21.34
65359;BME280;52491;45.900;6.346;2023-01-31T07:58:20;94792.03;;;22.38;21.43
65359;BME280;52491;45.900;6.346;2023-01-31T08:00:45;94800.81;;;22.38;21.66
65359;BME280;52491;45.900;6.346;2023-01-31T08:03:30;94791.22;;;22.37;21.59
65359;BME280;52491;45.900;6.346;2023-01-31T08:06:06;94792.03;;;22.38;21.49
65359;BME280;52491;45.900;6.346;2023-01-31T08:08:32;94791.47;;;22.36;21.71
65359;BME280;52491;45.900;6.346;2023-01-31T08:10:58;94795.97;;;22.35;21.60
65359;BME280;52491;45.900;6.346;2023-01-31T08:13:23;94798.63;;;22.35;21.54
65359;BME280;52491;45.900;6.346;2023-01-31T08:15:51;94809.25;;;22.35;21.44
65359;BME280;52491;45.900;6.346;2023-01-31T08:18:18;94811.06;;;22.34;21.49
65359;BME280;52491;45.900;6.346;2023-01-31T08:20:43;94818.84;;;22.36;21.68
65359;BME280;52491;45.900;6.346;2023-01-31T08:23:09;94828.06;;;22.33;21.62
65359;BME280;52491;45.900;6.346;2023-01-31T08:25:35;94826.22;;;22.34;21.58
65359;BME280;52491;45.900;6.346;2023-01-31T08:28:01;94829.13;;;22.32;21.43
65359;BME280;52491;45.900;6.346;2023-01-31T08:30:27;94838.91;;;22.32;21.56
65359;BME280;52491;45.900;6.346;2023-01-31T08:32:53;94838.09;;;22.31;21.85
65359;BME280;52491;45.900;6.346;2023-01-31T08:35:18;94837.28;;;22.31;21.50
65359;BME280;52491;45.900;6.346;2023-01-31T08:37:44;94846.06;;;22.31;21.55
65359;BME280;52491;45.900;6.346;2023-01-31T08:40:10;94841.00;;;22.30;21.53
65359;BME280;52491;45.900;6.346;2023-01-31T08:42:36;94840.19;;;22.29;21.50
65359;BME280;52491;45.900;6.346;2023-01-31T08:45:02;94837.53;;;22.29;21.55
65359;BME280;52491;45.900;6.346;2023-01-31T08:47:28;94835.69;;;22.30;21.58
65359;BME280;52491;45.900;6.346;2023-01-31T08:49:54;94839.34;;;22.29;21.56
65359;BME280;52491;45.900;6.346;2023-01-31T08:52:19;94847.13;;;22.30;21.62
65359;BME280;52491;45.900;6.346;2023-01-31T08:54:45;94851.63;;;22.30;21.59
65359;BME280;52491;45.900;6.346;2023-01-31T08:57:10;94849.19;;;22.28;21.47
65359;BME280;52491;45.900;6.346;2023-01-31T08:59:36;94851.63;;;22.30;21.41
65359;BME280;52491;45.900;6.346;2023-01-31T09:02:02;94848.38;;;22.28;21.50
65359;BME280;52491;45.900;6.346;2023-01-31T09:04:27;94852.06;;;22.27;21.44
65359;BME280;52491;45.900;6.346;2023-01-31T09:06:53;94852.63;;;22.29;21.59
65359;BME280;52491;45.900;6.346;2023-01-31T09:09:20;94855.28;;;22.29;21.48
65359;BME280;52491;45.900;6.346;2023-01-31T09:11:45;94859.00;;;22.28;21.68
65359;BME280;52491;45.900;6.346;2023-01-31T09:14:11;94860.59;;;22.29;21.52
65359;BME280;52491;45.900;6.346;2023-01-31T09:16:37;94860.59;;;22.29;21.53
65359;BME280;52491;45.900;6.346;2023-01-31T09:19:03;94864.31;;;22.28;21.50
65359;BME280;52491;45.900;6.346;2023-01-31T09:21:28;94862.69;;;22.27;21.39
65359;BME280;52491;45.900;6.346;2023-01-31T09:23:56;94875.97;;;22.27;21.46
65359;BME280;52491;45.900;6.346;2023-01-31T09:26:22;94875.16;;;22.26;21.48
65359;BME280;52491;45.900;6.346;2023-01-31T09:28:48;94882.31;;;22.26;21.58
65359;BME280;52491;45.900;6.346;2023-01-31T09:31:17;94887.63;;;22.26;21.36
65359;BME280;52491;45.900;6.346;2023-01-31T09:33:44;94882.31;;;22.26;21.43
65359;BME280;52491;45.900;6.346;2023-01-31T09:36:12;94883.13;;;22.26;21.62
65359;BME280;52491;45.900;6.346;2023-01-31T09:38:38;94880.25;;;22.28;21.44
65359;BME280;52491;45.900;6.346;2023-01-31T09:41:33;94874.72;;;22.29;21.28
65359;BME280;52491;45.900;6.346;2023-01-31T09:44:20;94877.59;;;22.28;21.51
65359;BME280;52491;45.900;6.346;2023-01-31T09:46:58;94882.09;;;22.27;21.44
65359;BME280;52491;45.900;6.346;2023-01-31T09:49:37;94880.25;;;22.28;21.38
65359;BME280;52491;45.900;6.346;2023-01-31T09:52:05;94876.53;;;22.29;21.50
65359;BME280;52491;45.900;6.346;2023-01-31T09:54:36;94874.84;;;22.34;21.29
65359;BME280;52491;45.900;6.346;2023-01-31T09:59:45;94880.06;;;22.41;21.15
65359;BME280;52491;45.900;6.346;2023-01-31T10:11:48;94897.47;;;22.55;21.10
65359;BME280;52491;45.900;6.346;2023-01-31T10:14:32;94902.97;;;22.54;21.19
65359;BME280;52491;45.900;6.346;2023-01-31T10:17:06;94905.63;;;22.54;21.12
65359;BME280;52491;45.900;6.346;2023-01-31T10:24:57;94905.78;;;22.59;21.09
65359;BME280;52491;45.900;6.346;2023-01-31T10:27:39;94907.78;;;22.64;21.00
65359;BME280;52491;45.900;6.346;2023-01-31T10:30:15;94905.91;;;22.64;20.96
65359;BME280;52491;45.900;6.346;2023-01-31T10:32:42;94900.34;;;22.66;20.88
65359;BME280;52491;45.900;6.346;2023-01-31T10:35:27;94898.06;;;22.69;20.80
65359;BME280;52491;45.900;6.346;2023-01-31T10:38:03;94896.81;;;22.72;20.97
65359;BME280;52491;45.900;6.346;2023-01-31T10:40:39;94895.56;;;22.74;21.00
65359;BME280;52491;45.900;6.346;2023-01-31T10:43:15;94895.31;;;22.76;20.90
65359;BME280;52491;45.900;6.346;2023-01-31T10:45:42;94889.19;;;22.75;20.86
65359;BME280;52491;45.900;6.346;2023-01-31T10:48:18;94882.38;;;22.79;21.01
65359;BME280;52491;45.900;6.346;2023-01-31T10:51:05;94878.44;;;22.82;20.98
65359;BME280;52491;45.900;6.346;2023-01-31T10:53:47;94879.84;;;22.85;20.98
65359;BME280;52491;45.900;6.346;2023-01-31T10:58:46;94869.59;;;22.88;21.23
65359;BME280;52491;45.900;6.346;2023-01-31T11:01:12;94864.03;;;22.90;20.95
65359;BME280;52491;45.900;6.346;2023-01-31T11:03:47;94867.03;;;22.93;21.04
65359;BME280;52491;45.900;6.346;2023-01-31T11:06:13;94869.69;;;22.93;21.07
65359;BME280;52491;45.900;6.346;2023-01-31T11:11:12;94871.69;;;22.98;20.97
65359;BME280;52491;45.900;6.346;2023-01-31T11:13:38;94864.78;;;22.97;20.90
65359;BME280;52491;45.900;6.346;2023-01-31T11:16:11;94869.63;;;23.00;21.14
65359;BME280;52491;45.900;6.346;2023-01-31T11:18:43;94859.53;;;23.02;21.14
65359;BME280;52491;45.900;6.346;2023-01-31T11:21:38;94856.66;;;23.04;21.09
65359;BME280;52491;45.900;6.346;2023-01-31T11:24:05;94847.31;;;23.01;21.04
65359;BME280;52491;45.900;6.346;2023-01-31T11:26:34;94839.91;;;23.03;21.01
65359;BME280;52491;45.900;6.346;2023-01-31T11:31:33;94837.84;;;23.05;21.08
65359;BME280;52491;45.900;6.346;2023-01-31T11:34:03;94834.34;;;23.05;21.08
65359;BME280;52491;45.900;6.346;2023-01-31T11:36:40;94834.72;;;23.08;21.22
65359;BME280;52491;45.900;6.346;2023-01-31T11:42:03;94816.91;;;23.09;21.24
65359;BME280;52491;45.900;6.346;2023-01-31T11:44:29;94810.53;;;23.10;21.26
65359;BME280;52491;45.900;6.346;2023-01-31T11:46:57;94813.53;;;23.13;21.22
65359;BME280;52491;45.900;6.346;2023-01-31T11:49:36;94801.06;;;23.14;21.33
65359;BME280;52491;45.900;6.346;2023-01-31T11:52:15;94790.97;;;23.16;21.22
65359;BME280;52491;45.900;6.346;2023-01-31T11:54:46;94788.09;;;23.17;21.20
65359;BME280;52491;45.900;6.346;2023-01-31T11:57:20;94788.09;;;23.17;21.20
65359;BME280;52491;45.900;6.346;2023-01-31T11:59:49;94786.25;;;23.18;21.34
65359;BME280;52491;45.900;6.346;2023-01-31T12:02:25;94782.53;;;23.19;21.44
65359;BME280;52491;45.900;6.346;2023-01-31T12:04:52;94778.41;;;23.11;20.73
65359;BME280;52491;45.900;6.346;2023-01-31T12:07:23;94767.28;;;23.03;21.11
65359;BME280;52491;45.900;6.346;2023-01-31T12:09:49;94761.16;;;23.02;21.17
65359;BME280;52491;45.900;6.346;2023-01-31T12:12:50;94765.31;;;23.10;21.40
65359;BME280;52491;45.900;6.346;2023-01-31T12:15:16;94757.34;;;23.10;21.38
65359;BME280;52491;45.900;6.346;2023-01-31T12:17:46;94745.19;;;23.14;21.33
65359;BME280;52491;45.900;6.346;2023-01-31T12:20:35;94751.44;;;23.19;21.38
65359;BME280;52491;45.900;6.346;2023-01-31T12:23:29;94747.50;;;23.22;21.50
65359;BME280;52491;45.900;6.346;2023-01-31T12:39:25;94703.75;;;23.30;21.39
65359;BME280;52491;45.900;6.346;2023-01-31T12:45:05;94692.06;;;23.31;21.42
65359;BME280;52491;45.900;6.346;2023-01-31T12:47:57;94688.13;;;23.33;21.36
65359;BME280;52491;45.900;6.346;2023-01-31T12:50:32;94684.44;;;23.34;21.47
65359;BME280;52491;45.900;6.346;2023-01-31T13:01:33;94668.56;;;23.39;21.62
65359;BME280;52491;45.900;6.346;2023-01-31T13:04:25;94666.47;;;23.41;21.31
65359;BME280;52491;45.900;6.346;2023-01-31T13:06:58;94658.50;;;23.41;21.47
65359;BME280;52491;45.900;6.346;2023-01-31T13:09:35;94655.59;;;23.43;21.72
65359;BME280;52491;45.900;6.346;2023-01-31T13:12:11;94658.25;;;23.43;21.54
65359;BME280;52491;45.900;6.346;2023-01-31T13:17:30;94657.78;;;23.46;21.53
65359;BME280;52491;45.900;6.346;2023-01-31T13:23:20;94652.22;;;23.48;21.54
65359;BME280;52491;45.900;6.346;2023-01-31T13:25:56;94657.28;;;23.49;21.57
65359;BME280;52491;45.900;6.346;2023-01-31T13:28:27;94661.34;;;23.52;21.41
65359;BME280;52491;45.900;6.346;2023-01-31T13:31:27;94659.47;;;23.52;21.46
65359;BME280;52491;45.900;6.346;2023-01-31T13:34:09;94653.34;;;23.52;21.47
65359;BME280;52491;45.900;6.346;2023-01-31T13:37:08;94654.97;;;23.53;21.39
65359;BME280;52491;45.900;6.346;2023-01-31T13:39:38;94659.47;;;23.52;21.54
65359;BME280;52491;45.900;6.346;2023-01-31T13:42:06;94656.59;;;23.54;21.44
65359;BME280;52491;45.900;6.346;2023-01-31T13:44:31;94660.84;;;23.55;21.47
65359;BME280;52491;45.900;6.346;2023-01-31T13:47:14;94667.56;;;23.57;21.57
65359;BME280;52491;45.900;6.346;2023-01-31T13:49:52;94660.38;;;23.58;21.39
65359;BME280;52491;45.900;6.346;2023-01-31T13:52:29;94662.50;;;23.56;21.28
65359;BME280;52491;45.900;6.346;2023-01-31T13:54:59;94649.72;;;23.58;21.47
65359;BME280;52491;45.900;6.346;2023-01-31T13:57:29;94647.91;;;23.58;21.44
65359;BME280;52491;45.900;6.346;2023-01-31T14:00:09;94641.53;;;23.59;21.51
65359;BME280;52491;45.900;6.346;2023-01-31T14:03:08;94638.59;;;23.61;21.35
65359;BME280;52491;45.900;6.346;2023-01-31T14:13:44;94623.69;;;23.60;21.58
65359;BME280;52491;45.900;6.346;2023-01-31T14:16:38;94621.59;;;23.62;21.44
65359;BME280;52491;45.900;6.346;2023-01-31T14:22:03;94612.56;;;23.63;21.38
65359;BME280;52491;45.900;6.346;2023-01-31T14:25:38;94616.84;;;23.64;21.65
65359;BME280;52491;45.900;6.346;2023-01-31T14:30:29;94613.94;;;23.65;21.55
65359;BME280;52491;45.900;6.346;2023-01-31T14:35:59;94609.41;;;23.66;21.56
65359;BME280;52491;45.900;6.346;2023-01-31T14:38:51;94609.41;;;23.66;21.64
65359;BME280;52491;45.900;6.346;2023-01-31T14:47:24;94612.34;;;23.64;21.71
65359;BME280;52491;45.900;6.346;2023-01-31T14:55:27;94619.75;;;23.62;21.61
65359;BME280;52491;45.900;6.346;2023-01-31T14:57:59;94625.06;;;23.62;21.52
65359;BME280;52491;45.900;6.346;2023-01-31T15:00:36;94626.66;;;23.63;21.51
65359;BME280;52491;45.900;6.346;2023-01-31T15:03:35;94635.72;;;23.62;21.78
65359;BME280;52491;45.900;6.346;2023-01-31T15:06:07;94637.56;;;23.62;21.58
65359;BME280;52491;45.900;6.346;2023-01-31T15:08:48;94623.47;;;23.61;21.35
65359;BME280;52491;45.900;6.346;2023-01-31T15:11:36;94629.59;;;23.62;21.48
65359;BME280;52491;45.900;6.346;2023-01-31T15:14:19;94626.34;;;23.60;21.38